sensor_id;sensor_type;location;lat;lon;timestamp;P1;durP1;ratioP1;P2;durP2;ratioP2
37997;SDS011;24079;51.824;4.682;2024-01-30T00:01:51;21.52;;;12.95;;
37997;SDS011;24079;51.824;4.682;2024-01-30T00:04:18;21.80;;;12.73;;
37997;SDS011;24079;51.824;4.682;2024-01-30T00:06:44;22.02;;;12.25;;
37997;SDS011;24079;51.824;4.682;2024-01-30T00:09:10;24.63;;;12.07;;
37997;SDS011;24079;51.824;4.682;2024-01-30T00:11:39;21.48;;;12.05;;
37997;SDS011;24079;51.824;4.682;2024-01-30T00:14:05;21.88;;;12.45;;
37997;SDS011;24079;51.824;4.682;2024-01-30T00:16:31;19.30;;;11.70;;
37997;SDS011;24079;51.824;4.682;2024-01-30T00:18:57;17.67;;;10.98;;
37997;SDS011;24079;51.824;4.682;2024-01-30T00:21:23;21.35;;;11.73;;
37997;SDS011;24079;51.824;4.682;2024-01-30T00:23:56;17.92;;;11.27;;
37997;SDS011;24079;51.824;4.682;2024-01-30T00:28:48;19.25;;;11.23;;
37997;SDS011;24079;51.824;4.682;2024-01-30T00:31:14;20.83;;;12.27;;
37997;SDS011;24079;51.824;4.682;2024-01-30T00:33:40;20.13;;;11.48;;
37997;SDS011;24079;51.824;4.682;2024-01-30T00:36:07;20.77;;;12.38;;
37997;SDS011;24079;51.824;4.682;2024-01-30T00:38:33;21.17;;;11.77;;
37997;SDS011;24079;51.824;4.682;2024-01-30T00:40:59;19.85;;;11.05;;
37997;SDS011;24079;51.824;4.682;2024-01-30T00:43:24;17.50;;;10.95;;
37997;SDS011;24079;51.824;4.682;2024-01-30T00:45:50;21.83;;;11.82;;
37997;SDS011;24079;51.824;4.682;2024-01-30T00:48:19;17.95;;;10.85;;
37997;SDS011;24079;51.824;4.682;2024-01-30T00:50:45;19.25;;;11.23;;
37997;SDS011;24079;51.824;4.682;2024-01-30T00:53:11;21.30;;;11.20;;
37997;SDS011;24079;51.824;4.682;2024-01-30T00:55:37;18.25;;;11.00;;
37997;SDS011;24079;51.824;4.682;2024-01-30T00:58:03;18.83;;;11.45;;
37997;SDS011;24079;51.824;4.682;2024-01-30T01:00:28;21.25;;;10.77;;
37997;SDS011;24079;51.824;4.682;2024-01-30T01:02:55;19.50;;;10.50;;
37997;SDS011;24079;51.824;4.682;2024-01-30T01:05:20;17.95;;;10.38;;
37997;SDS011;24079;51.824;4.682;2024-01-30T01:07:46;18.05;;;10.50;;
37997;SDS011;24079;51.824;4.682;2024-01-30T01:10:15;20.52;;;11.40;;
37997;SDS011;24079;51.824;4.682;2024-01-30T01:12:47;19.10;;;11.20;;
37997;SDS011;24079;51.824;4.682;2024-01-30T01:15:13;21.50;;;11.25;;
37997;SDS011;24079;51.824;4.682;2024-01-30T01:17:39;16.63;;;10.50;;
37997;SDS011;24079;51.824;4.682;2024-01-30T01:20:05;20.67;;;11.07;;
37997;SDS011;24079;51.824;4.682;2024-01-30T01:22:32;18.88;;;10.75;;
37997;SDS011;24079;51.824;4.682;2024-01-30T01:24:58;18.15;;;10.70;;
37997;SDS011;24079;51.824;4.682;2024-01-30T01:27:24;17.67;;;10.57;;
37997;SDS011;24079;51.824;4.682;2024-01-30T01:29:50;18.17;;;10.13;;
37997;SDS011;24079;51.824;4.682;2024-01-30T01:32:16;17.27;;;10.65;;
37997;SDS011;24079;51.824;4.682;2024-01-30T01:34:42;17.75;;;10.70;;
37997;SDS011;24079;51.824;4.682;2024-01-30T01:37:07;18.33;;;10.63;;
37997;SDS011;24079;51.824;4.682;2024-01-30T01:39:33;15.77;;;10.15;;
37997;SDS011;24079;51.824;4.682;2024-01-30T01:41:59;20.80;;;10.80;;
37997;SDS011;24079;51.824;4.682;2024-01-30T01:44:24;16.75;;;10.48;;
37997;SDS011;24079;51.824;4.682;2024-01-30T01:46:50;17.58;;;10.50;;
37997;SDS011;24079;51.824;4.682;2024-01-30T01:49:17;20.50;;;10.57;;
37997;SDS011;24079;51.824;4.682;2024-01-30T01:51:49;21.02;;;10.75;;
37997;SDS011;24079;51.824;4.682;2024-01-30T01:54:16;18.67;;;10.85;;
37997;SDS011;24079;51.824;4.682;2024-01-30T01:56:42;20.08;;;10.63;;
37997;SDS011;24079;51.824;4.682;2024-01-30T01:59:09;19.20;;;10.80;;
37997;SDS011;24079;51.824;4.682;2024-01-30T02:01:37;21.25;;;11.00;;
37997;SDS011;24079;51.824;4.682;2024-01-30T02:04:06;18.47;;;10.67;;
37997;SDS011;24079;51.824;4.682;2024-01-30T02:06:33;17.42;;;10.43;;
37997;SDS011;24079;51.824;4.682;2024-01-30T02:08:59;17.95;;;10.93;;
37997;SDS011;24079;51.824;4.682;2024-01-30T02:11:25;17.60;;;10.63;;
37997;SDS011;24079;51.824;4.682;2024-01-30T02:13:51;15.88;;;10.23;;
37997;SDS011;24079;51.824;4.682;2024-01-30T02:16:17;17.42;;;10.25;;
37997;SDS011;24079;51.824;4.682;2024-01-30T02:18:43;18.05;;;10.73;;
37997;SDS011;24079;51.824;4.682;2024-01-30T02:21:12;21.98;;;10.98;;
37997;SDS011;24079;51.824;4.682;2024-01-30T02:23:39;18.60;;;11.38;;
37997;SDS011;24079;51.824;4.682;2024-01-30T02:26:05;20.13;;;11.07;;
37997;SDS011;24079;51.824;4.682;2024-01-30T02:28:31;21.30;;;10.50;;
37997;SDS011;24079;51.824;4.682;2024-01-30T02:30:57;18.80;;;10.48;;
37997;SDS011;24079;51.824;4.682;2024-01-30T02:33:22;22.40;;;11.70;;
37997;SDS011;24079;51.824;4.682;2024-01-30T02:35:48;20.38;;;10.80;;
37997;SDS011;24079;51.824;4.682;2024-01-30T02:38:15;19.20;;;10.82;;
37997;SDS011;24079;51.824;4.682;2024-01-30T02:40:40;17.90;;;10.55;;
37997;SDS011;24079;51.824;4.682;2024-01-30T02:43:06;20.85;;;10.13;;
37997;SDS011;24079;51.824;4.682;2024-01-30T02:45:32;24.38;;;10.77;;
37997;SDS011;24079;51.824;4.682;2024-01-30T02:47:57;17.70;;;10.20;;
37997;SDS011;24079;51.824;4.682;2024-01-30T02:50:23;21.50;;;11.70;;
37997;SDS011;24079;51.824;4.682;2024-01-30T02:52:48;22.20;;;10.90;;
37997;SDS011;24079;51.824;4.682;2024-01-30T02:55:14;17.05;;;11.00;;
37997;SDS011;24079;51.824;4.682;2024-01-30T02:57:42;19.55;;;11.05;;
37997;SDS011;24079;51.824;4.682;2024-01-30T03:00:08;18.63;;;10.40;;
37997;SDS011;24079;51.824;4.682;2024-01-30T03:02:34;16.88;;;10.95;;
37997;SDS011;24079;51.824;4.682;2024-01-30T03:05:01;24.77;;;11.85;;
37997;SDS011;24079;51.824;4.682;2024-01-30T03:07:27;18.88;;;11.10;;
37997;SDS011;24079;51.824;4.682;2024-01-30T03:09:53;21.35;;;11.02;;
37997;SDS011;24079;51.824;4.682;2024-01-30T03:12:21;20.08;;;10.98;;
37997;SDS011;24079;51.824;4.682;2024-01-30T03:14:48;17.83;;;10.38;;
37997;SDS011;24079;51.824;4.682;2024-01-30T03:17:14;20.38;;;10.90;;
37997;SDS011;24079;51.824;4.682;2024-01-30T03:19:40;17.23;;;10.93;;
37997;SDS011;24079;51.824;4.682;2024-01-30T03:22:06;21.63;;;11.07;;
37997;SDS011;24079;51.824;4.682;2024-01-30T03:24:32;19.60;;;10.88;;
37997;SDS011;24079;51.824;4.682;2024-01-30T03:26:58;20.25;;;11.30;;
37997;SDS011;24079;51.824;4.682;2024-01-30T03:29:24;18.17;;;10.15;;
37997;SDS011;24079;51.824;4.682;2024-01-30T03:31:50;20.33;;;10.50;;
37997;SDS011;24079;51.824;4.682;2024-01-30T03:34:15;19.65;;;10.13;;
37997;SDS011;24079;51.824;4.682;2024-01-30T03:36:41;20.40;;;10.30;;
37997;SDS011;24079;51.824;4.682;2024-01-30T03:39:06;18.17;;;10.60;;
37997;SDS011;24079;51.824;4.682;2024-01-30T03:41:32;19.30;;;10.68;;
37997;SDS011;24079;51.824;4.682;2024-01-30T03:43:58;17.27;;;10.48;;
37997;SDS011;24079;51.824;4.682;2024-01-30T03:46:23;19.73;;;10.27;;
37997;SDS011;24079;51.824;4.682;2024-01-30T03:48:49;15.82;;;10.45;;
37997;SDS011;24079;51.824;4.682;2024-01-30T03:51:15;16.48;;;11.02;;
37997;SDS011;24079;51.824;4.682;2024-01-30T03:53:43;17.50;;;10.15;;
37997;SDS011;24079;51.824;4.682;2024-01-30T03:56:11;18.55;;;10.27;;
37997;SDS011;24079;51.824;4.682;2024-01-30T03:58:38;19.55;;;10.63;;
37997;SDS011;24079;51.824;4.682;2024-01-30T04:01:03;20.35;;;10.68;;
37997;SDS011;24079;51.824;4.682;2024-01-30T04:03:29;17.98;;;10.27;;
37997;SDS011;24079;51.824;4.682;2024-01-30T04:05:54;17.42;;;10.05;;
37997;SDS011;24079;51.824;4.682;2024-01-30T04:08:20;22.75;;;11.40;;
37997;SDS011;24079;51.824;4.682;2024-01-30T04:10:46;19.60;;;10.88;;
37997;SDS011;24079;51.824;4.682;2024-01-30T04:13:12;16.05;;;10.18;;
37997;SDS011;24079;51.824;4.682;2024-01-30T04:15:38;18.70;;;10.25;;
37997;SDS011;24079;51.824;4.682;2024-01-30T04:18:03;19.55;;;10.00;;
37997;SDS011;24079;51.824;4.682;2024-01-30T04:20:29;16.83;;;9.88;;
37997;SDS011;24079;51.824;4.682;2024-01-30T04:22:55;19.08;;;10.40;;
37997;SDS011;24079;51.824;4.682;2024-01-30T04:25:21;16.48;;;9.93;;
37997;SDS011;24079;51.824;4.682;2024-01-30T04:27:46;22.45;;;11.20;;
37997;SDS011;24079;51.824;4.682;2024-01-30T04:30:12;17.27;;;9.90;;
37997;SDS011;24079;51.824;4.682;2024-01-30T04:32:38;16.60;;;10.15;;
37997;SDS011;24079;51.824;4.682;2024-01-30T04:35:04;18.15;;;10.75;;
37997;SDS011;24079;51.824;4.682;2024-01-30T04:37:30;22.08;;;10.60;;
37997;SDS011;24079;51.824;4.682;2024-01-30T04:39:56;19.58;;;9.75;;
37997;SDS011;24079;51.824;4.682;2024-01-30T04:42:21;19.55;;;10.73;;
37997;SDS011;24079;51.824;4.682;2024-01-30T04:44:47;18.17;;;10.10;;
37997;SDS011;24079;51.824;4.682;2024-01-30T04:47:13;19.27;;;10.35;;
37997;SDS011;24079;51.824;4.682;2024-01-30T04:49:38;16.55;;;9.82;;
37997;SDS011;24079;51.824;4.682;2024-01-30T04:52:07;15.60;;;9.57;;
37997;SDS011;24079;51.824;4.682;2024-01-30T04:54:34;15.60;;;10.02;;
37997;SDS011;24079;51.824;4.682;2024-01-30T04:57:00;16.55;;;10.85;;
37997;SDS011;24079;51.824;4.682;2024-01-30T04:59:26;19.02;;;10.43;;
37997;SDS011;24079;51.824;4.682;2024-01-30T05:01:52;15.60;;;9.27;;
37997;SDS011;24079;51.824;4.682;2024-01-30T05:04:17;20.67;;;9.88;;
37997;SDS011;24079;51.824;4.682;2024-01-30T05:06:43;15.27;;;9.30;;
37997;SDS011;24079;51.824;4.682;2024-01-30T05:09:09;17.05;;;10.23;;
37997;SDS011;24079;51.824;4.682;2024-01-30T05:11:38;16.50;;;9.50;;
37997;SDS011;24079;51.824;4.682;2024-01-30T05:14:04;18.95;;;10.07;;
37997;SDS011;24079;51.824;4.682;2024-01-30T05:16:30;23.77;;;10.30;;
37997;SDS011;24079;51.824;4.682;2024-01-30T05:18:56;17.95;;;9.48;;
37997;SDS011;24079;51.824;4.682;2024-01-30T05:21:22;17.02;;;10.35;;
37997;SDS011;24079;51.824;4.682;2024-01-30T05:23:48;21.27;;;10.30;;
37997;SDS011;24079;51.824;4.682;2024-01-30T05:26:13;15.55;;;9.50;;
37997;SDS011;24079;51.824;4.682;2024-01-30T05:28:39;16.75;;;9.43;;
37997;SDS011;24079;51.824;4.682;2024-01-30T05:31:04;17.48;;;10.30;;
37997;SDS011;24079;51.824;4.682;2024-01-30T05:33:30;17.23;;;9.82;;
37997;SDS011;24079;51.824;4.682;2024-01-30T05:35:56;23.88;;;9.30;;
37997;SDS011;24079;51.824;4.682;2024-01-30T05:38:21;16.88;;;10.40;;
37997;SDS011;24079;51.824;4.682;2024-01-30T05:40:47;13.40;;;9.45;;
37997;SDS011;24079;51.824;4.682;2024-01-30T05:43:12;15.95;;;9.63;;
37997;SDS011;24079;51.824;4.682;2024-01-30T05:45:38;17.48;;;10.13;;
37997;SDS011;24079;51.824;4.682;2024-01-30T05:48:04;18.42;;;10.38;;
37997;SDS011;24079;51.824;4.682;2024-01-30T05:50:30;19.80;;;10.70;;
37997;SDS011;24079;51.824;4.682;2024-01-30T05:52:56;20.55;;;9.88;;
37997;SDS011;24079;51.824;4.682;2024-01-30T05:55:22;18.40;;;10.45;;
37997;SDS011;24079;51.824;4.682;2024-01-30T05:57:48;17.83;;;10.45;;
37997;SDS011;24079;51.824;4.682;2024-01-30T06:00:15;18.40;;;10.55;;
37997;SDS011;24079;51.824;4.682;2024-01-30T06:02:41;17.98;;;10.20;;
37997;SDS011;24079;51.824;4.682;2024-01-30T06:05:07;18.98;;;9.63;;
37997;SDS011;24079;51.824;4.682;2024-01-30T06:07:34;20.35;;;9.80;;
37997;SDS011;24079;51.824;4.682;2024-01-30T06:10:00;17.63;;;10.45;;
37997;SDS011;24079;51.824;4.682;2024-01-30T06:12:27;18.70;;;10.77;;
37997;SDS011;24079;51.824;4.682;2024-01-30T06:14:53;18.98;;;10.27;;
37997;SDS011;24079;51.824;4.682;2024-01-30T06:17:22;18.20;;;9.27;;
37997;SDS011;24079;51.824;4.682;2024-01-30T06:19:49;19.55;;;10.10;;
37997;SDS011;24079;51.824;4.682;2024-01-30T06:22:15;19.38;;;10.38;;
37997;SDS011;24079;51.824;4.682;2024-01-30T06:24:41;20.73;;;9.93;;
37997;SDS011;24079;51.824;4.682;2024-01-30T06:27:10;19.52;;;9.65;;
37997;SDS011;24079;51.824;4.682;2024-01-30T06:29:36;16.23;;;9.45;;
37997;SDS011;24079;51.824;4.682;2024-01-30T06:32:02;15.98;;;10.20;;
37997;SDS011;24079;51.824;4.682;2024-01-30T06:34:28;14.85;;;9.13;;
37997;SDS011;24079;51.824;4.682;2024-01-30T06:36:55;14.70;;;9.20;;
37997;SDS011;24079;51.824;4.682;2024-01-30T06:39:21;14.98;;;9.52;;
37997;SDS011;24079;51.824;4.682;2024-01-30T06:41:47;18.15;;;9.60;;
37997;SDS011;24079;51.824;4.682;2024-01-30T06:44:13;21.58;;;10.25;;
37997;SDS011;24079;51.824;4.682;2024-01-30T06:46:39;15.43;;;9.40;;
37997;SDS011;24079;51.824;4.682;2024-01-30T06:49:05;21.25;;;10.55;;
37997;SDS011;24079;51.824;4.682;2024-01-30T06:51:31;21.10;;;10.32;;
37997;SDS011;24079;51.824;4.682;2024-01-30T06:53:57;19.40;;;10.30;;
37997;SDS011;24079;51.824;4.682;2024-01-30T06:56:23;20.67;;;10.20;;
37997;SDS011;24079;51.824;4.682;2024-01-30T06:58:49;17.33;;;9.50;;
37997;SDS011;24079;51.824;4.682;2024-01-30T07:01:16;17.48;;;9.88;;
37997;SDS011;24079;51.824;4.682;2024-01-30T07:03:42;17.30;;;9.13;;
37997;SDS011;24079;51.824;4.682;2024-01-30T07:06:08;17.25;;;9.48;;
37997;SDS011;24079;51.824;4.682;2024-01-30T07:08:35;17.52;;;10.27;;
37997;SDS011;24079;51.824;4.682;2024-01-30T07:11:02;20.80;;;10.30;;
37997;SDS011;24079;51.824;4.682;2024-01-30T07:13:28;20.00;;;9.65;;
37997;SDS011;24079;51.824;4.682;2024-01-30T07:15:53;25.58;;;9.80;;
37997;SDS011;24079;51.824;4.682;2024-01-30T07:18:19;20.70;;;10.68;;
37997;SDS011;24079;51.824;4.682;2024-01-30T07:20:45;24.70;;;10.23;;
37997;SDS011;24079;51.824;4.682;2024-01-30T07:23:12;21.05;;;9.73;;
37997;SDS011;24079;51.824;4.682;2024-01-30T07:25:41;25.40;;;10.60;;
37997;SDS011;24079;51.824;4.682;2024-01-30T07:28:08;20.80;;;10.43;;
37997;SDS011;24079;51.824;4.682;2024-01-30T07:30:38;24.75;;;10.23;;
37997;SDS011;24079;51.824;4.682;2024-01-30T07:33:03;22.83;;;10.00;;
37997;SDS011;24079;51.824;4.682;2024-01-30T07:35:29;20.48;;;10.70;;
37997;SDS011;24079;51.824;4.682;2024-01-30T07:37:55;21.08;;;9.68;;
37997;SDS011;24079;51.824;4.682;2024-01-30T07:40:22;19.80;;;9.15;;
37997;SDS011;24079;51.824;4.682;2024-01-30T07:42:48;20.67;;;10.40;;
37997;SDS011;24079;51.824;4.682;2024-01-30T07:45:14;22.25;;;9.38;;
37997;SDS011;24079;51.824;4.682;2024-01-30T07:47:39;18.25;;;10.05;;
37997;SDS011;24079;51.824;4.682;2024-01-30T07:50:05;23.33;;;10.05;;
37997;SDS011;24079;51.824;4.682;2024-01-30T07:52:31;24.98;;;10.18;;
37997;SDS011;24079;51.824;4.682;2024-01-30T07:54:57;18.83;;;9.82;;
37997;SDS011;24079;51.824;4.682;2024-01-30T07:57:23;19.52;;;9.63;;
37997;SDS011;24079;51.824;4.682;2024-01-30T07:59:48;28.60;;;11.50;;
37997;SDS011;24079;51.824;4.682;2024-01-30T08:02:14;22.08;;;9.65;;
37997;SDS011;24079;51.824;4.682;2024-01-30T08:04:40;23.48;;;10.55;;
37997;SDS011;24079;51.824;4.682;2024-01-30T08:07:06;17.25;;;9.40;;
37997;SDS011;24079;51.824;4.682;2024-01-30T08:09:31;25.10;;;9.63;;
37997;SDS011;24079;51.824;4.682;2024-01-30T08:11:58;24.23;;;9.85;;
37997;SDS011;24079;51.824;4.682;2024-01-30T08:14:24;20.35;;;10.18;;
37997;SDS011;24079;51.824;4.682;2024-01-30T08:16:50;22.83;;;9.48;;
37997;SDS011;24079;51.824;4.682;2024-01-30T08:19:16;22.60;;;9.55;;
37997;SDS011;24079;51.824;4.682;2024-01-30T08:21:42;22.13;;;9.77;;
37997;SDS011;24079;51.824;4.682;2024-01-30T08:24:07;19.98;;;8.77;;
37997;SDS011;24079;51.824;4.682;2024-01-30T08:26:33;24.13;;;9.45;;
37997;SDS011;24079;51.824;4.682;2024-01-30T08:29:00;22.45;;;9.73;;
37997;SDS011;24079;51.824;4.682;2024-01-30T08:31:26;25.85;;;9.93;;
37997;SDS011;24079;51.824;4.682;2024-01-30T08:33:52;20.17;;;10.23;;
37997;SDS011;24079;51.824;4.682;2024-01-30T08:36:18;17.50;;;9.05;;
37997;SDS011;24079;51.824;4.682;2024-01-30T08:38:45;21.70;;;9.60;;
37997;SDS011;24079;51.824;4.682;2024-01-30T08:41:10;19.95;;;9.07;;
37997;SDS011;24079;51.824;4.682;2024-01-30T08:43:36;27.20;;;10.02;;
37997;SDS011;24079;51.824;4.682;2024-01-30T08:46:02;24.55;;;9.02;;
37997;SDS011;24079;51.824;4.682;2024-01-30T08:48:28;24.95;;;9.88;;
37997;SDS011;24079;51.824;4.682;2024-01-30T08:50:54;18.95;;;8.95;;
37997;SDS011;24079;51.824;4.682;2024-01-30T08:53:19;28.98;;;9.40;;
37997;SDS011;24079;51.824;4.682;2024-01-30T08:55:45;23.15;;;10.43;;
37997;SDS011;24079;51.824;4.682;2024-01-30T08:58:11;20.75;;;9.55;;
37997;SDS011;24079;51.824;4.682;2024-01-30T09:00:36;17.02;;;8.25;;
37997;SDS011;24079;51.824;4.682;2024-01-30T09:03:02;21.88;;;8.73;;
37997;SDS011;24079;51.824;4.682;2024-01-30T09:05:29;28.05;;;9.13;;
37997;SDS011;24079;51.824;4.682;2024-01-30T09:07:55;17.05;;;8.82;;
37997;SDS011;24079;51.824;4.682;2024-01-30T09:10:21;21.23;;;9.50;;
37997;SDS011;24079;51.824;4.682;2024-01-30T09:12:47;21.13;;;9.25;;
37997;SDS011;24079;51.824;4.682;2024-01-30T09:15:13;18.88;;;8.60;;
37997;SDS011;24079;51.824;4.682;2024-01-30T09:17:39;19.52;;;9.55;;
37997;SDS011;24079;51.824;4.682;2024-01-30T09:20:04;19.50;;;9.15;;
37997;SDS011;24079;51.824;4.682;2024-01-30T09:22:30;19.80;;;9.57;;
37997;SDS011;24079;51.824;4.682;2024-01-30T09:24:56;19.40;;;9.25;;
37997;SDS011;24079;51.824;4.682;2024-01-30T09:27:22;16.58;;;9.00;;
37997;SDS011;24079;51.824;4.682;2024-01-30T09:29:48;22.02;;;9.40;;
37997;SDS011;24079;51.824;4.682;2024-01-30T09:32:14;21.85;;;9.13;;
37997;SDS011;24079;51.824;4.682;2024-01-30T09:34:40;21.17;;;9.05;;
37997;SDS011;24079;51.824;4.682;2024-01-30T09:37:06;20.30;;;9.68;;
37997;SDS011;24079;51.824;4.682;2024-01-30T09:39:32;21.20;;;9.57;;
37997;SDS011;24079;51.824;4.682;2024-01-30T09:45:03;17.52;;;8.63;;
37997;SDS011;24079;51.824;4.682;2024-01-30T09:47:42;19.33;;;8.85;;
37997;SDS011;24079;51.824;4.682;2024-01-30T09:50:09;19.13;;;8.98;;
37997;SDS011;24079;51.824;4.682;2024-01-30T09:52:36;20.85;;;8.80;;
37997;SDS011;24079;51.824;4.682;2024-01-30T09:55:03;17.63;;;8.52;;
37997;SDS011;24079;51.824;4.682;2024-01-30T09:57:29;16.77;;;7.97;;
37997;SDS011;24079;51.824;4.682;2024-01-30T09:59:55;17.88;;;8.85;;
37997;SDS011;24079;51.824;4.682;2024-01-30T10:02:21;16.67;;;8.85;;
37997;SDS011;24079;51.824;4.682;2024-01-30T10:04:47;22.40;;;8.18;;
37997;SDS011;24079;51.824;4.682;2024-01-30T10:07:14;19.20;;;8.30;;
37997;SDS011;24079;51.824;4.682;2024-01-30T10:09:40;17.98;;;8.40;;
37997;SDS011;24079;51.824;4.682;2024-01-30T10:12:06;16.88;;;7.90;;
37997;SDS011;24079;51.824;4.682;2024-01-30T10:14:34;25.55;;;8.02;;
37997;SDS011;24079;51.824;4.682;2024-01-30T10:17:09;16.95;;;8.10;;
37997;SDS011;24079;51.824;4.682;2024-01-30T10:19:35;17.73;;;8.07;;
37997;SDS011;24079;51.824;4.682;2024-01-30T10:22:03;26.77;;;8.18;;
37997;SDS011;24079;51.824;4.682;2024-01-30T10:24:29;23.40;;;8.52;;
37997;SDS011;24079;51.824;4.682;2024-01-30T10:26:55;18.58;;;7.40;;
37997;SDS011;24079;51.824;4.682;2024-01-30T10:29:21;17.00;;;8.27;;
37997;SDS011;24079;51.824;4.682;2024-01-30T10:31:57;24.05;;;8.23;;
37997;SDS011;24079;51.824;4.682;2024-01-30T10:34:26;19.42;;;7.15;;
37997;SDS011;24079;51.824;4.682;2024-01-30T10:36:55;17.13;;;6.25;;
37997;SDS011;24079;51.824;4.682;2024-01-30T10:39:37;16.70;;;6.82;;
37997;SDS011;24079;51.824;4.682;2024-01-30T10:42:04;19.08;;;7.68;;
37997;SDS011;24079;51.824;4.682;2024-01-30T10:44:39;17.85;;;5.90;;
37997;SDS011;24079;51.824;4.682;2024-01-30T10:47:21;7.88;;;3.13;;
37997;SDS011;24079;51.824;4.682;2024-01-30T10:49:51;9.00;;;2.80;;
37997;SDS011;24079;51.824;4.682;2024-01-30T10:52:19;14.07;;;2.63;;
37997;SDS011;24079;51.824;4.682;2024-01-30T10:54:45;5.20;;;1.63;;
37997;SDS011;24079;51.824;4.682;2024-01-30T10:57:12;6.55;;;1.60;;
37997;SDS011;24079;51.824;4.682;2024-01-30T10:59:40;8.00;;;1.95;;
37997;SDS011;24079;51.824;4.682;2024-01-30T11:02:07;8.50;;;1.15;;
37997;SDS011;24079;51.824;4.682;2024-01-30T11:04:37;9.73;;;1.30;;
37997;SDS011;24079;51.824;4.682;2024-01-30T11:07:19;7.30;;;1.52;;
37997;SDS011;24079;51.824;4.682;2024-01-30T11:09:53;5.15;;;1.00;;
37997;SDS011;24079;51.824;4.682;2024-01-30T11:12:29;9.27;;;1.90;;
37997;SDS011;24079;51.824;4.682;2024-01-30T11:20:30;8.77;;;2.15;;
37997;SDS011;24079;51.824;4.682;2024-01-30T11:23:01;11.52;;;2.53;;
37997;SDS011;24079;51.824;4.682;2024-01-30T11:25:31;9.95;;;3.10;;
37997;SDS011;24079;51.824;4.682;2024-01-30T11:27:57;10.00;;;2.47;;
37997;SDS011;24079;51.824;4.682;2024-01-30T11:33:03;13.55;;;2.83;;
37997;SDS011;24079;51.824;4.682;2024-01-30T11:35:31;9.80;;;2.70;;
37997;SDS011;24079;51.824;4.682;2024-01-30T11:37:58;9.00;;;3.15;;
37997;SDS011;24079;51.824;4.682;2024-01-30T11:40:26;15.32;;;3.47;;
37997;SDS011;24079;51.824;4.682;2024-01-30T11:42:56;11.93;;;2.63;;
37997;SDS011;24079;51.824;4.682;2024-01-30T11:45:23;9.30;;;2.30;;
37997;SDS011;24079;51.824;4.682;2024-01-30T11:47:49;13.80;;;2.70;;
37997;SDS011;24079;51.824;4.682;2024-01-30T11:50:15;14.45;;;3.00;;
37997;SDS011;24079;51.824;4.682;2024-01-30T11:52:41;16.80;;;2.95;;
37997;SDS011;24079;51.824;4.682;2024-01-30T11:55:08;12.18;;;2.47;;
37997;SDS011;24079;51.824;4.682;2024-01-30T11:57:34;16.05;;;2.67;;
37997;SDS011;24079;51.824;4.682;2024-01-30T12:00:01;15.93;;;2.40;;
37997;SDS011;24079;51.824;4.682;2024-01-30T12:02:29;13.05;;;2.88;;
37997;SDS011;24079;51.824;4.682;2024-01-30T12:04:55;16.98;;;2.40;;
37997;SDS011;24079;51.824;4.682;2024-01-30T12:07:21;11.85;;;2.88;;
37997;SDS011;24079;51.824;4.682;2024-01-30T12:09:53;15.90;;;2.10;;
37997;SDS011;24079;51.824;4.682;2024-01-30T12:12:20;11.65;;;2.35;;
37997;SDS011;24079;51.824;4.682;2024-01-30T12:14:49;12.95;;;1.75;;
37997;SDS011;24079;51.824;4.682;2024-01-30T12:17:31;10.30;;;1.70;;
37997;SDS011;24079;51.824;4.682;2024-01-30T12:20:18;9.65;;;1.23;;
37997;SDS011;24079;51.824;4.682;2024-01-30T12:22:45;10.35;;;2.10;;
37997;SDS011;24079;51.824;4.682;2024-01-30T12:25:15;9.70;;;2.13;;
37997;SDS011;24079;51.824;4.682;2024-01-30T12:27:42;9.18;;;1.48;;
37997;SDS011;24079;51.824;4.682;2024-01-30T12:30:09;6.90;;;1.70;;
37997;SDS011;24079;51.824;4.682;2024-01-30T12:32:36;7.15;;;1.80;;
37997;SDS011;24079;51.824;4.682;2024-01-30T12:35:06;5.90;;;1.52;;
37997;SDS011;24079;51.824;4.682;2024-01-30T12:37:33;10.75;;;1.63;;
37997;SDS011;24079;51.824;4.682;2024-01-30T12:39:59;4.93;;;0.95;;
37997;SDS011;24079;51.824;4.682;2024-01-30T12:42:26;9.13;;;1.20;;
37997;SDS011;24079;51.824;4.682;2024-01-30T12:44:52;9.63;;;1.35;;
37997;SDS011;24079;51.824;4.682;2024-01-30T12:47:18;10.75;;;2.10;;
37997;SDS011;24079;51.824;4.682;2024-01-30T12:49:46;8.93;;;1.58;;
37997;SDS011;24079;51.824;4.682;2024-01-30T12:52:12;8.60;;;1.42;;
37997;SDS011;24079;51.824;4.682;2024-01-30T12:54:39;6.28;;;1.50;;
37997;SDS011;24079;51.824;4.682;2024-01-30T12:57:05;5.90;;;1.35;;
37997;SDS011;24079;51.824;4.682;2024-01-30T12:59:31;9.50;;;1.70;;
37997;SDS011;24079;51.824;4.682;2024-01-30T13:01:57;10.35;;;1.00;;
37997;SDS011;24079;51.824;4.682;2024-01-30T13:04:25;6.55;;;1.38;;
37997;SDS011;24079;51.824;4.682;2024-01-30T13:06:50;6.15;;;1.23;;
37997;SDS011;24079;51.824;4.682;2024-01-30T13:09:16;7.43;;;1.80;;
37997;SDS011;24079;51.824;4.682;2024-01-30T13:11:41;12.15;;;1.95;;
37997;SDS011;24079;51.824;4.682;2024-01-30T13:14:07;9.27;;;1.40;;
37997;SDS011;24079;51.824;4.682;2024-01-30T13:16:33;7.03;;;1.15;;
37997;SDS011;24079;51.824;4.682;2024-01-30T13:18:58;7.38;;;1.25;;
37997;SDS011;24079;51.824;4.682;2024-01-30T13:21:26;9.70;;;1.55;;
37997;SDS011;24079;51.824;4.682;2024-01-30T13:23:51;9.48;;;1.83;;
37997;SDS011;24079;51.824;4.682;2024-01-30T13:26:19;5.05;;;1.40;;
37997;SDS011;24079;51.824;4.682;2024-01-30T13:28:45;6.13;;;1.33;;
37997;SDS011;24079;51.824;4.682;2024-01-30T13:31:12;8.48;;;1.65;;
37997;SDS011;24079;51.824;4.682;2024-01-30T13:33:38;7.90;;;1.85;;
37997;SDS011;24079;51.824;4.682;2024-01-30T13:36:03;9.23;;;1.80;;
37997;SDS011;24079;51.824;4.682;2024-01-30T13:38:29;12.20;;;2.05;;
37997;SDS011;24079;51.824;4.682;2024-01-30T13:40:55;11.25;;;2.13;;
37997;SDS011;24079;51.824;4.682;2024-01-30T13:43:20;11.77;;;2.28;;
37997;SDS011;24079;51.824;4.682;2024-01-30T13:45:46;13.27;;;2.55;;
37997;SDS011;24079;51.824;4.682;2024-01-30T13:48:11;13.13;;;2.97;;
37997;SDS011;24079;51.824;4.682;2024-01-30T13:50:37;9.32;;;2.45;;
37997;SDS011;24079;51.824;4.682;2024-01-30T13:53:02;13.68;;;3.00;;
37997;SDS011;24079;51.824;4.682;2024-01-30T13:55:29;12.20;;;2.65;;
37997;SDS011;24079;51.824;4.682;2024-01-30T13:57:55;18.42;;;2.75;;
37997;SDS011;24079;51.824;4.682;2024-01-30T14:00:21;14.52;;;2.55;;
37997;SDS011;24079;51.824;4.682;2024-01-30T14:02:48;12.98;;;2.50;;
37997;SDS011;24079;51.824;4.682;2024-01-30T14:05:13;24.17;;;2.58;;
37997;SDS011;24079;51.824;4.682;2024-01-30T14:07:40;11.15;;;2.22;;
37997;SDS011;24079;51.824;4.682;2024-01-30T14:10:11;16.25;;;2.83;;
37997;SDS011;24079;51.824;4.682;2024-01-30T14:12:37;15.85;;;2.70;;
37997;SDS011;24079;51.824;4.682;2024-01-30T14:15:02;15.98;;;3.33;;
37997;SDS011;24079;51.824;4.682;2024-01-30T14:17:28;13.00;;;2.65;;
37997;SDS011;24079;51.824;4.682;2024-01-30T14:19:54;24.77;;;3.10;;
37997;SDS011;24079;51.824;4.682;2024-01-30T14:22:19;13.50;;;2.67;;
37997;SDS011;24079;51.824;4.682;2024-01-30T14:24:45;9.93;;;2.42;;
37997;SDS011;24079;51.824;4.682;2024-01-30T14:27:11;11.15;;;2.55;;
37997;SDS011;24079;51.824;4.682;2024-01-30T14:29:37;10.27;;;2.67;;
37997;SDS011;24079;51.824;4.682;2024-01-30T14:32:03;9.55;;;2.60;;
37997;SDS011;24079;51.824;4.682;2024-01-30T14:34:29;17.20;;;3.30;;
37997;SDS011;24079;51.824;4.682;2024-01-30T14:36:54;12.32;;;2.70;;
37997;SDS011;24079;51.824;4.682;2024-01-30T14:39:20;11.43;;;2.50;;
37997;SDS011;24079;51.824;4.682;2024-01-30T14:41:47;13.50;;;2.78;;